Huvudsida
METAR-TAF:

METAR-TAF

Flygplatser :

Svolværs flygplats. Helle

Svolvær, Norge

latitud: 68-15N, longitud: 014-40E, höjd: 0 m

Aktuellt väderrapport

Denna rapport gjordes för 1 timme och 47 minuter sedan, klockan 13:50 UTC
Vind 22 kt från syd/sydväst
Temperatur 9°C
Fuktighet 71%
Tryck 1011 hPa
Sikt 10 km eller mer
Spridda moln på en höjd av 2000 ft, Cumulonimbus.
Brutna moln på en höjd av 7000 ft
skurar i närheten

METAR: ENSH 201350Z 21022KT 9999 VCSH SCT020CB BKN070 09/04 Q1011 RMK WIND 150FT 19025KT

Tid: 17:37 (15:37 UTC)

Väderprognos

Denna rapport gjordes för 7 timmar och 37 minuter sedan, klockan 08:00 UTC
Prognos gäller från 20 kl. 09 UTC till 20 kl. 14 UTC
Vind 22 kt från sydväst
Sikt 10 km eller mer
Få moln på en höjd av 1200 ft, Högtornande cumulus.
Brutna moln på en höjd av 2000 ft
lätta regnskurar

TAF: ENSH 200800Z 2009/2014 22022KT 9999 -SHRA FEW012TCU BKN020

Aktuella väderrapporter och prognoser från 4000 flygplatser (METAR- och TAF-rapporter).

De tillgängliga stationerna syns som gula och röda prickar på kartan.

För musen över prickarna för att se namnen på stationerna.

Klicka sedan för att få väderrapporter och prognoser.

För att ändra kartan: Klicka på de gröna knapparna med ett svart kors på för att zooma in; den gröna knappen med ett streck på för att zooma ut; eller på de gröna pilarna för angränsande kartor.


METAR-TAF: